sensor_id;sensor_type;location;lat;lon;timestamp;P1;durP1;ratioP1;P2;durP2;ratioP2
29686;SDS011;16599;47.078;15.536;2023-04-16T00:01:03;21.65;;;13.07;;
29686;SDS011;16599;47.078;15.536;2023-04-16T00:03:30;18.67;;;11.60;;
29686;SDS011;16599;47.078;15.536;2023-04-16T00:05:58;18.95;;;12.98;;
29686;SDS011;16599;47.078;15.536;2023-04-16T00:08:25;21.23;;;13.82;;
29686;SDS011;16599;47.078;15.536;2023-04-16T00:10:51;19.25;;;11.88;;
29686;SDS011;16599;47.078;15.536;2023-04-16T00:13:19;18.95;;;12.48;;
29686;SDS011;16599;47.078;15.536;2023-04-16T00:15:46;19.88;;;12.75;;
29686;SDS011;16599;47.078;15.536;2023-04-16T00:18:13;21.33;;;14.43;;
29686;SDS011;16599;47.078;15.536;2023-04-16T00:20:39;23.77;;;13.07;;
29686;SDS011;16599;47.078;15.536;2023-04-16T00:23:06;15.02;;;11.38;;
29686;SDS011;16599;47.078;15.536;2023-04-16T00:25:33;17.50;;;12.55;;
29686;SDS011;16599;47.078;15.536;2023-04-16T00:28:00;19.52;;;12.25;;
29686;SDS011;16599;47.078;15.536;2023-04-16T00:30:27;17.95;;;12.02;;
29686;SDS011;16599;47.078;15.536;2023-04-16T00:32:53;15.45;;;11.23;;
29686;SDS011;16599;47.078;15.536;2023-04-16T00:35:20;19.45;;;13.07;;
29686;SDS011;16599;47.078;15.536;2023-04-16T00:37:47;18.35;;;12.30;;
29686;SDS011;16599;47.078;15.536;2023-04-16T00:40:14;18.10;;;12.02;;
29686;SDS011;16599;47.078;15.536;2023-04-16T00:42:41;17.20;;;11.98;;
29686;SDS011;16599;47.078;15.536;2023-04-16T00:45:08;18.75;;;12.10;;
29686;SDS011;16599;47.078;15.536;2023-04-16T00:47:35;17.15;;;11.15;;
29686;SDS011;16599;47.078;15.536;2023-04-16T00:50:03;16.27;;;11.30;;
29686;SDS011;16599;47.078;15.536;2023-04-16T00:52:31;17.65;;;12.60;;
29686;SDS011;16599;47.078;15.536;2023-04-16T00:54:58;17.35;;;11.85;;
29686;SDS011;16599;47.078;15.536;2023-04-16T00:57:26;15.32;;;11.45;;
29686;SDS011;16599;47.078;15.536;2023-04-16T00:59:53;15.00;;;10.50;;
29686;SDS011;16599;47.078;15.536;2023-04-16T01:02:21;15.77;;;10.27;;
29686;SDS011;16599;47.078;15.536;2023-04-16T01:04:48;15.00;;;9.82;;
29686;SDS011;16599;47.078;15.536;2023-04-16T01:07:15;16.00;;;10.32;;
29686;SDS011;16599;47.078;15.536;2023-04-16T01:09:42;17.75;;;9.90;;
29686;SDS011;16599;47.078;15.536;2023-04-16T01:12:09;15.55;;;9.00;;
29686;SDS011;16599;47.078;15.536;2023-04-16T01:14:36;13.45;;;9.88;;
29686;SDS011;16599;47.078;15.536;2023-04-16T01:17:03;15.05;;;9.95;;
29686;SDS011;16599;47.078;15.536;2023-04-16T01:19:29;15.93;;;11.20;;
29686;SDS011;16599;47.078;15.536;2023-04-16T01:21:57;15.15;;;11.10;;
29686;SDS011;16599;47.078;15.536;2023-04-16T01:24:24;13.27;;;8.88;;
29686;SDS011;16599;47.078;15.536;2023-04-16T01:26:51;15.63;;;10.65;;
29686;SDS011;16599;47.078;15.536;2023-04-16T01:29:18;14.45;;;10.30;;
29686;SDS011;16599;47.078;15.536;2023-04-16T01:31:45;14.35;;;8.88;;
29686;SDS011;16599;47.078;15.536;2023-04-16T01:34:12;29.13;;;16.25;;
29686;SDS011;16599;47.078;15.536;2023-04-16T01:36:39;28.33;;;16.92;;
29686;SDS011;16599;47.078;15.536;2023-04-16T01:39:05;16.02;;;10.23;;
29686;SDS011;16599;47.078;15.536;2023-04-16T01:41:33;20.10;;;12.77;;
29686;SDS011;16599;47.078;15.536;2023-04-16T01:43:59;16.63;;;11.88;;
29686;SDS011;16599;47.078;15.536;2023-04-16T01:46:27;17.90;;;13.40;;
29686;SDS011;16599;47.078;15.536;2023-04-16T01:48:56;18.08;;;12.80;;
29686;SDS011;16599;47.078;15.536;2023-04-16T01:51:23;14.32;;;9.77;;
29686;SDS011;16599;47.078;15.536;2023-04-16T01:53:50;18.25;;;10.88;;
29686;SDS011;16599;47.078;15.536;2023-04-16T01:56:17;13.50;;;8.98;;
29686;SDS011;16599;47.078;15.536;2023-04-16T01:58:44;12.68;;;9.32;;
29686;SDS011;16599;47.078;15.536;2023-04-16T02:01:12;9.90;;;7.68;;
29686;SDS011;16599;47.078;15.536;2023-04-16T02:03:39;11.82;;;7.75;;
29686;SDS011;16599;47.078;15.536;2023-04-16T02:06:07;19.40;;;10.00;;
29686;SDS011;16599;47.078;15.536;2023-04-16T02:08:34;12.48;;;9.65;;
29686;SDS011;16599;47.078;15.536;2023-04-16T02:11:01;11.05;;;7.28;;
29686;SDS011;16599;47.078;15.536;2023-04-16T02:13:27;10.13;;;7.40;;
29686;SDS011;16599;47.078;15.536;2023-04-16T02:15:54;10.00;;;7.53;;
29686;SDS011;16599;47.078;15.536;2023-04-16T02:18:21;12.93;;;8.05;;
29686;SDS011;16599;47.078;15.536;2023-04-16T02:20:48;12.50;;;7.28;;
29686;SDS011;16599;47.078;15.536;2023-04-16T02:23:15;12.68;;;8.02;;
29686;SDS011;16599;47.078;15.536;2023-04-16T02:25:42;12.35;;;8.32;;
29686;SDS011;16599;47.078;15.536;2023-04-16T02:28:11;14.02;;;8.88;;
29686;SDS011;16599;47.078;15.536;2023-04-16T02:30:40;12.70;;;8.30;;
29686;SDS011;16599;47.078;15.536;2023-04-16T02:33:07;11.65;;;8.50;;
29686;SDS011;16599;47.078;15.536;2023-04-16T02:35:37;13.25;;;8.73;;
29686;SDS011;16599;47.078;15.536;2023-04-16T02:38:05;12.77;;;8.57;;
29686;SDS011;16599;47.078;15.536;2023-04-16T02:40:32;13.80;;;8.23;;
29686;SDS011;16599;47.078;15.536;2023-04-16T02:42:59;9.80;;;7.15;;
29686;SDS011;16599;47.078;15.536;2023-04-16T02:45:26;11.25;;;7.03;;
29686;SDS011;16599;47.078;15.536;2023-04-16T02:47:53;11.55;;;8.23;;
29686;SDS011;16599;47.078;15.536;2023-04-16T02:50:20;16.40;;;8.82;;
29686;SDS011;16599;47.078;15.536;2023-04-16T02:52:46;10.18;;;7.93;;
29686;SDS011;16599;47.078;15.536;2023-04-16T02:55:13;175.32;;;10.18;;
29686;SDS011;16599;47.078;15.536;2023-04-16T02:57:41;91.88;;;10.57;;
29686;SDS011;16599;47.078;15.536;2023-04-16T03:00:08;268.58;;;12.70;;
29686;SDS011;16599;47.078;15.536;2023-04-16T03:02:35;101.13;;;11.07;;
29686;SDS011;16599;47.078;15.536;2023-04-16T03:05:02;16.05;;;9.25;;
29686;SDS011;16599;47.078;15.536;2023-04-16T03:07:29;17.88;;;8.98;;
29686;SDS011;16599;47.078;15.536;2023-04-16T03:09:56;15.20;;;9.30;;
29686;SDS011;16599;47.078;15.536;2023-04-16T03:12:23;14.95;;;9.82;;
29686;SDS011;16599;47.078;15.536;2023-04-16T03:14:50;20.90;;;13.50;;
29686;SDS011;16599;47.078;15.536;2023-04-16T03:17:19;46.05;;;12.82;;
29686;SDS011;16599;47.078;15.536;2023-04-16T03:19:46;103.18;;;12.48;;
29686;SDS011;16599;47.078;15.536;2023-04-16T03:22:13;150.10;;;15.88;;
29686;SDS011;16599;47.078;15.536;2023-04-16T03:24:40;189.90;;;14.68;;
29686;SDS011;16599;47.078;15.536;2023-04-16T03:27:07;171.52;;;17.90;;
29686;SDS011;16599;47.078;15.536;2023-04-16T03:29:37;198.85;;;15.68;;
29686;SDS011;16599;47.078;15.536;2023-04-16T03:32:04;73.47;;;11.20;;
29686;SDS011;16599;47.078;15.536;2023-04-16T03:34:31;59.63;;;9.85;;
29686;SDS011;16599;47.078;15.536;2023-04-16T03:36:58;18.23;;;13.20;;
29686;SDS011;16599;47.078;15.536;2023-04-16T03:39:25;49.40;;;11.63;;
29686;SDS011;16599;47.078;15.536;2023-04-16T03:41:52;29.58;;;8.43;;
29686;SDS011;16599;47.078;15.536;2023-04-16T03:44:19;11.05;;;7.72;;
29686;SDS011;16599;47.078;15.536;2023-04-16T03:46:45;16.33;;;9.38;;
29686;SDS011;16599;47.078;15.536;2023-04-16T03:49:12;13.20;;;9.02;;
29686;SDS011;16599;47.078;15.536;2023-04-16T03:51:39;15.55;;;8.45;;
29686;SDS011;16599;47.078;15.536;2023-04-16T03:54:06;9.52;;;6.72;;
29686;SDS011;16599;47.078;15.536;2023-04-16T03:56:33;12.32;;;7.68;;
29686;SDS011;16599;47.078;15.536;2023-04-16T03:58:59;13.10;;;8.95;;
29686;SDS011;16599;47.078;15.536;2023-04-16T04:01:26;13.48;;;8.95;;
29686;SDS011;16599;47.078;15.536;2023-04-16T04:03:53;13.27;;;8.93;;
29686;SDS011;16599;47.078;15.536;2023-04-16T04:06:20;11.25;;;7.80;;
29686;SDS011;16599;47.078;15.536;2023-04-16T04:08:47;10.20;;;7.60;;
29686;SDS011;16599;47.078;15.536;2023-04-16T04:11:13;9.90;;;7.30;;
29686;SDS011;16599;47.078;15.536;2023-04-16T04:13:40;11.75;;;7.75;;
29686;SDS011;16599;47.078;15.536;2023-04-16T04:16:07;10.15;;;7.35;;
29686;SDS011;16599;47.078;15.536;2023-04-16T04:18:34;9.45;;;6.93;;
29686;SDS011;16599;47.078;15.536;2023-04-16T04:21:05;12.00;;;8.77;;
29686;SDS011;16599;47.078;15.536;2023-04-16T04:23:33;16.73;;;9.77;;
29686;SDS011;16599;47.078;15.536;2023-04-16T04:26:00;10.65;;;8.30;;
29686;SDS011;16599;47.078;15.536;2023-04-16T04:28:29;10.57;;;7.13;;
29686;SDS011;16599;47.078;15.536;2023-04-16T04:30:59;12.07;;;7.95;;
29686;SDS011;16599;47.078;15.536;2023-04-16T04:33:26;11.48;;;7.80;;
29686;SDS011;16599;47.078;15.536;2023-04-16T04:35:53;8.77;;;6.70;;
29686;SDS011;16599;47.078;15.536;2023-04-16T04:38:21;14.30;;;8.32;;
29686;SDS011;16599;47.078;15.536;2023-04-16T04:40:50;11.05;;;8.10;;
29686;SDS011;16599;47.078;15.536;2023-04-16T04:43:18;12.43;;;8.20;;
29686;SDS011;16599;47.078;15.536;2023-04-16T04:45:45;12.93;;;8.52;;
29686;SDS011;16599;47.078;15.536;2023-04-16T04:48:15;11.50;;;8.23;;
29686;SDS011;16599;47.078;15.536;2023-04-16T04:50:43;10.98;;;7.03;;
29686;SDS011;16599;47.078;15.536;2023-04-16T04:53:10;8.00;;;6.03;;
29686;SDS011;16599;47.078;15.536;2023-04-16T04:55:38;8.25;;;6.00;;
29686;SDS011;16599;47.078;15.536;2023-04-16T04:58:05;10.57;;;7.25;;
29686;SDS011;16599;47.078;15.536;2023-04-16T05:00:33;9.05;;;6.78;;
29686;SDS011;16599;47.078;15.536;2023-04-16T05:03:01;13.43;;;6.72;;
29686;SDS011;16599;47.078;15.536;2023-04-16T05:05:31;12.00;;;7.25;;
29686;SDS011;16599;47.078;15.536;2023-04-16T05:07:58;23.38;;;9.20;;
29686;SDS011;16599;47.078;15.536;2023-04-16T05:10:25;16.00;;;8.50;;
29686;SDS011;16599;47.078;15.536;2023-04-16T05:12:52;15.80;;;7.32;;
29686;SDS011;16599;47.078;15.536;2023-04-16T05:15:19;14.75;;;8.35;;
29686;SDS011;16599;47.078;15.536;2023-04-16T05:17:46;15.55;;;7.47;;
29686;SDS011;16599;47.078;15.536;2023-04-16T05:20:12;9.35;;;6.22;;
29686;SDS011;16599;47.078;15.536;2023-04-16T05:22:39;16.60;;;5.78;;
29686;SDS011;16599;47.078;15.536;2023-04-16T05:25:06;11.05;;;5.30;;
29686;SDS011;16599;47.078;15.536;2023-04-16T05:27:33;7.53;;;4.57;;
29686;SDS011;16599;47.078;15.536;2023-04-16T05:30:00;7.85;;;4.35;;
29686;SDS011;16599;47.078;15.536;2023-04-16T05:32:27;11.07;;;5.97;;
29686;SDS011;16599;47.078;15.536;2023-04-16T05:34:54;14.80;;;5.57;;
29686;SDS011;16599;47.078;15.536;2023-04-16T05:37:21;8.52;;;5.90;;
29686;SDS011;16599;47.078;15.536;2023-04-16T05:39:48;6.07;;;4.25;;
29686;SDS011;16599;47.078;15.536;2023-04-16T05:42:15;9.90;;;6.25;;
29686;SDS011;16599;47.078;15.536;2023-04-16T05:44:41;9.68;;;5.90;;
29686;SDS011;16599;47.078;15.536;2023-04-16T05:47:08;7.53;;;5.43;;
29686;SDS011;16599;47.078;15.536;2023-04-16T05:49:35;9.73;;;5.97;;
29686;SDS011;16599;47.078;15.536;2023-04-16T05:52:02;10.32;;;6.30;;
29686;SDS011;16599;47.078;15.536;2023-04-16T05:54:30;12.82;;;5.65;;
29686;SDS011;16599;47.078;15.536;2023-04-16T05:56:57;12.02;;;6.85;;
29686;SDS011;16599;47.078;15.536;2023-04-16T05:59:24;10.00;;;6.10;;
29686;SDS011;16599;47.078;15.536;2023-04-16T06:01:51;10.50;;;6.60;;
29686;SDS011;16599;47.078;15.536;2023-04-16T06:04:18;9.68;;;5.97;;
29686;SDS011;16599;47.078;15.536;2023-04-16T06:06:45;8.38;;;6.40;;
29686;SDS011;16599;47.078;15.536;2023-04-16T06:09:12;14.27;;;8.38;;
29686;SDS011;16599;47.078;15.536;2023-04-16T06:11:39;17.55;;;10.10;;
29686;SDS011;16599;47.078;15.536;2023-04-16T06:14:06;11.50;;;7.88;;
29686;SDS011;16599;47.078;15.536;2023-04-16T06:16:32;10.48;;;6.85;;
29686;SDS011;16599;47.078;15.536;2023-04-16T06:18:59;9.40;;;7.30;;
29686;SDS011;16599;47.078;15.536;2023-04-16T06:21:27;9.20;;;6.45;;
29686;SDS011;16599;47.078;15.536;2023-04-16T06:23:54;13.07;;;10.60;;
29686;SDS011;16599;47.078;15.536;2023-04-16T06:26:21;9.55;;;6.65;;
29686;SDS011;16599;47.078;15.536;2023-04-16T06:28:48;9.43;;;5.47;;
29686;SDS011;16599;47.078;15.536;2023-04-16T06:31:15;5.60;;;4.75;;
29686;SDS011;16599;47.078;15.536;2023-04-16T06:33:42;4.97;;;4.47;;
29686;SDS011;16599;47.078;15.536;2023-04-16T06:36:09;5.68;;;3.90;;
29686;SDS011;16599;47.078;15.536;2023-04-16T06:38:36;10.77;;;4.32;;
29686;SDS011;16599;47.078;15.536;2023-04-16T06:41:03;5.32;;;4.68;;
29686;SDS011;16599;47.078;15.536;2023-04-16T06:43:30;5.07;;;4.30;;
29686;SDS011;16599;47.078;15.536;2023-04-16T06:45:58;7.47;;;4.32;;
29686;SDS011;16599;47.078;15.536;2023-04-16T06:48:26;5.07;;;4.03;;
29686;SDS011;16599;47.078;15.536;2023-04-16T06:50:53;7.93;;;4.38;;
29686;SDS011;16599;47.078;15.536;2023-04-16T06:53:21;5.85;;;4.45;;
29686;SDS011;16599;47.078;15.536;2023-04-16T06:55:48;5.45;;;4.63;;
29686;SDS011;16599;47.078;15.536;2023-04-16T06:58:15;7.55;;;4.28;;
29686;SDS011;16599;47.078;15.536;2023-04-16T07:00:42;5.88;;;3.60;;
29686;SDS011;16599;47.078;15.536;2023-04-16T07:03:09;4.55;;;3.70;;
29686;SDS011;16599;47.078;15.536;2023-04-16T07:05:36;6.50;;;4.13;;
29686;SDS011;16599;47.078;15.536;2023-04-16T07:08:03;8.38;;;5.20;;
29686;SDS011;16599;47.078;15.536;2023-04-16T07:10:30;6.35;;;4.47;;
29686;SDS011;16599;47.078;15.536;2023-04-16T07:12:57;7.22;;;4.22;;
29686;SDS011;16599;47.078;15.536;2023-04-16T07:15:24;6.65;;;4.65;;
29686;SDS011;16599;47.078;15.536;2023-04-16T07:17:50;5.68;;;3.97;;
29686;SDS011;16599;47.078;15.536;2023-04-16T07:20:17;4.05;;;2.88;;
29686;SDS011;16599;47.078;15.536;2023-04-16T07:25:52;7.00;;;3.28;;
29686;SDS011;16599;47.078;15.536;2023-04-16T07:28:19;4.05;;;2.75;;
29686;SDS011;16599;47.078;15.536;2023-04-16T07:30:46;8.20;;;3.28;;
29686;SDS011;16599;47.078;15.536;2023-04-16T07:33:12;7.07;;;2.90;;
29686;SDS011;16599;47.078;15.536;2023-04-16T07:35:39;3.95;;;2.45;;
29686;SDS011;16599;47.078;15.536;2023-04-16T07:38:06;4.85;;;2.92;;
29686;SDS011;16599;47.078;15.536;2023-04-16T07:40:33;2.97;;;2.25;;
29686;SDS011;16599;47.078;15.536;2023-04-16T07:43:01;2.83;;;2.20;;
29686;SDS011;16599;47.078;15.536;2023-04-16T07:45:28;3.92;;;2.00;;
29686;SDS011;16599;47.078;15.536;2023-04-16T07:47:55;2.17;;;2.00;;
29686;SDS011;16599;47.078;15.536;2023-04-16T07:50:21;2.63;;;2.08;;
29686;SDS011;16599;47.078;15.536;2023-04-16T07:52:48;2.45;;;2.00;;
29686;SDS011;16599;47.078;15.536;2023-04-16T07:55:15;2.45;;;2.00;;
29686;SDS011;16599;47.078;15.536;2023-04-16T07:57:42;3.92;;;2.17;;
29686;SDS011;16599;47.078;15.536;2023-04-16T08:00:09;4.35;;;2.70;;
29686;SDS011;16599;47.078;15.536;2023-04-16T08:02:36;2.50;;;1.70;;
29686;SDS011;16599;47.078;15.536;2023-04-16T08:05:03;2.60;;;1.90;;
29686;SDS011;16599;47.078;15.536;2023-04-16T08:07:31;2.35;;;1.63;;
29686;SDS011;16599;47.078;15.536;2023-04-16T08:10:00;3.88;;;2.25;;
29686;SDS011;16599;47.078;15.536;2023-04-16T08:12:28;1.15;;;1.05;;
29686;SDS011;16599;47.078;15.536;2023-04-16T08:14:55;1.10;;;1.00;;
29686;SDS011;16599;47.078;15.536;2023-04-16T08:17:22;1.45;;;1.25;;
29686;SDS011;16599;47.078;15.536;2023-04-16T08:19:48;1.38;;;1.08;;
29686;SDS011;16599;47.078;15.536;2023-04-16T08:22:15;0.90;;;0.80;;
29686;SDS011;16599;47.078;15.536;2023-04-16T08:24:42;0.98;;;0.98;;
29686;SDS011;16599;47.078;15.536;2023-04-16T08:27:09;0.90;;;0.90;;
29686;SDS011;16599;47.078;15.536;2023-04-16T08:29:45;1.05;;;1.00;;
29686;SDS011;16599;47.078;15.536;2023-04-16T08:32:12;1.35;;;1.00;;
29686;SDS011;16599;47.078;15.536;2023-04-16T08:34:39;3.65;;;3.30;;
29686;SDS011;16599;47.078;15.536;2023-04-16T08:37:06;2.80;;;2.60;;
29686;SDS011;16599;47.078;15.536;2023-04-16T08:39:33;3.63;;;2.03;;
29686;SDS011;16599;47.078;15.536;2023-04-16T08:42:01;1.25;;;1.08;;
29686;SDS011;16599;47.078;15.536;2023-04-16T08:44:31;1.05;;;1.00;;
29686;SDS011;16599;47.078;15.536;2023-04-16T08:47:00;1.10;;;1.00;;
29686;SDS011;16599;47.078;15.536;2023-04-16T08:49:27;1.67;;;1.25;;
29686;SDS011;16599;47.078;15.536;2023-04-16T08:51:55;2.38;;;1.50;;
29686;SDS011;16599;47.078;15.536;2023-04-16T08:57:09;1.52;;;1.30;;
29686;SDS011;16599;47.078;15.536;2023-04-16T08:59:37;1.38;;;1.27;;
29686;SDS011;16599;47.078;15.536;2023-04-16T09:02:05;1.95;;;1.38;;
29686;SDS011;16599;47.078;15.536;2023-04-16T09:04:32;1.23;;;1.13;;
29686;SDS011;16599;47.078;15.536;2023-04-16T09:07:01;1.58;;;1.20;;
29686;SDS011;16599;47.078;15.536;2023-04-16T09:09:31;0.82;;;0.82;;
29686;SDS011;16599;47.078;15.536;2023-04-16T09:11:59;1.25;;;1.15;;
29686;SDS011;16599;47.078;15.536;2023-04-16T09:14:26;3.10;;;0.82;;
29686;SDS011;16599;47.078;15.536;2023-04-16T09:16:54;0.80;;;0.80;;
29686;SDS011;16599;47.078;15.536;2023-04-16T09:19:22;1.63;;;0.70;;
29686;SDS011;16599;47.078;15.536;2023-04-16T09:21:49;2.65;;;0.68;;
29686;SDS011;16599;47.078;15.536;2023-04-16T09:24:16;1.50;;;1.20;;
29686;SDS011;16599;47.078;15.536;2023-04-16T09:26:43;1.45;;;1.13;;
29686;SDS011;16599;47.078;15.536;2023-04-16T09:29:11;1.15;;;0.88;;
29686;SDS011;16599;47.078;15.536;2023-04-16T09:32:05;0.80;;;0.80;;
29686;SDS011;16599;47.078;15.536;2023-04-16T09:34:34;1.05;;;0.95;;
29686;SDS011;16599;47.078;15.536;2023-04-16T09:37:19;1.35;;;0.75;;
29686;SDS011;16599;47.078;15.536;2023-04-16T09:42:27;0.88;;;0.88;;
29686;SDS011;16599;47.078;15.536;2023-04-16T09:45:02;0.93;;;0.85;;
29686;SDS011;16599;47.078;15.536;2023-04-16T09:47:38;0.82;;;0.82;;
29686;SDS011;16599;47.078;15.536;2023-04-16T09:50:17;0.95;;;0.90;;
29686;SDS011;16599;47.078;15.536;2023-04-16T09:52:47;0.77;;;0.77;;
29686;SDS011;16599;47.078;15.536;2023-04-16T09:55:16;0.93;;;0.80;;
29686;SDS011;16599;47.078;15.536;2023-04-16T09:57:48;0.98;;;0.80;;
29686;SDS011;16599;47.078;15.536;2023-04-16T10:00:23;0.93;;;0.93;;
29686;SDS011;16599;47.078;15.536;2023-04-16T10:02:52;1.02;;;0.68;;
29686;SDS011;16599;47.078;15.536;2023-04-16T10:05:29;0.95;;;0.75;;
29686;SDS011;16599;47.078;15.536;2023-04-16T10:07:58;1.90;;;0.70;;
29686;SDS011;16599;47.078;15.536;2023-04-16T10:10:26;1.60;;;1.10;;
29686;SDS011;16599;47.078;15.536;2023-04-16T10:12:54;0.82;;;0.70;;
29686;SDS011;16599;47.078;15.536;2023-04-16T10:15:21;1.00;;;0.90;;
29686;SDS011;16599;47.078;15.536;2023-04-16T10:17:49;14.38;;;13.30;;
29686;SDS011;16599;47.078;15.536;2023-04-16T10:20:16;0.80;;;0.80;;
29686;SDS011;16599;47.078;15.536;2023-04-16T10:22:44;0.95;;;0.80;;
29686;SDS011;16599;47.078;15.536;2023-04-16T10:25:11;2.50;;;1.95;;
29686;SDS011;16599;47.078;15.536;2023-04-16T10:27:38;0.90;;;0.85;;
29686;SDS011;16599;47.078;15.536;2023-04-16T10:30:06;0.85;;;0.70;;
29686;SDS011;16599;47.078;15.536;2023-04-16T10:32:34;1.05;;;1.05;;
29686;SDS011;16599;47.078;15.536;2023-04-16T10:35:03;0.70;;;0.70;;
29686;SDS011;16599;47.078;15.536;2023-04-16T10:37:31;1.95;;;0.88;;
29686;SDS011;16599;47.078;15.536;2023-04-16T10:39:58;0.50;;;0.50;;
29686;SDS011;16599;47.078;15.536;2023-04-16T10:42:25;0.85;;;0.80;;
29686;SDS011;16599;47.078;15.536;2023-04-16T10:44:52;0.77;;;0.77;;
29686;SDS011;16599;47.078;15.536;2023-04-16T10:47:19;0.85;;;0.60;;
29686;SDS011;16599;47.078;15.536;2023-04-16T10:49:51;1.00;;;0.90;;
29686;SDS011;16599;47.078;15.536;2023-04-16T10:52:18;0.60;;;0.60;;
29686;SDS011;16599;47.078;15.536;2023-04-16T10:54:47;0.70;;;0.70;;
29686;SDS011;16599;47.078;15.536;2023-04-16T10:57:15;1.00;;;0.82;;
29686;SDS011;16599;47.078;15.536;2023-04-16T10:59:43;0.73;;;0.70;;
29686;SDS011;16599;47.078;15.536;2023-04-16T11:02:14;0.70;;;0.70;;
29686;SDS011;16599;47.078;15.536;2023-04-16T11:04:44;0.90;;;0.70;;
29686;SDS011;16599;47.078;15.536;2023-04-16T11:07:19;0.90;;;0.90;;
29686;SDS011;16599;47.078;15.536;2023-04-16T11:12:23;1.30;;;0.85;;
29686;SDS011;16599;47.078;15.536;2023-04-16T11:18:28;1.23;;;1.15;;
29686;SDS011;16599;47.078;15.536;2023-04-16T11:20:55;1.17;;;0.98;;
29686;SDS011;16599;47.078;15.536;2023-04-16T11:23:23;1.52;;;1.27;;
29686;SDS011;16599;47.078;15.536;2023-04-16T11:25:50;1.30;;;1.08;;
29686;SDS011;16599;47.078;15.536;2023-04-16T11:28:32;3.92;;;2.33;;
29686;SDS011;16599;47.078;15.536;2023-04-16T11:31:07;0.73;;;0.73;;
29686;SDS011;16599;47.078;15.536;2023-04-16T11:33:36;1.15;;;1.05;;
29686;SDS011;16599;47.078;15.536;2023-04-16T11:36:04;1.23;;;1.10;;
29686;SDS011;16599;47.078;15.536;2023-04-16T11:38:32;1.63;;;1.20;;
29686;SDS011;16599;47.078;15.536;2023-04-16T11:41:02;1.30;;;1.10;;
29686;SDS011;16599;47.078;15.536;2023-04-16T11:43:29;1.10;;;1.00;;
29686;SDS011;16599;47.078;15.536;2023-04-16T11:45:58;1.10;;;1.00;;
29686;SDS011;16599;47.078;15.536;2023-04-16T11:48:49;1.10;;;1.00;;
29686;SDS011;16599;47.078;15.536;2023-04-16T11:51:17;0.70;;;0.70;;
29686;SDS011;16599;47.078;15.536;2023-04-16T11:53:49;1.00;;;0.93;;
29686;SDS011;16599;47.078;15.536;2023-04-16T11:56:29;2.20;;;0.90;;
29686;SDS011;16599;47.078;15.536;2023-04-16T11:59:08;0.70;;;0.70;;
29686;SDS011;16599;47.078;15.536;2023-04-16T12:01:38;1.30;;;0.90;;
29686;SDS011;16599;47.078;15.536;2023-04-16T12:04:06;1.15;;;0.60;;
29686;SDS011;16599;47.078;15.536;2023-04-16T12:06:34;0.80;;;0.80;;
29686;SDS011;16599;47.078;15.536;2023-04-16T12:09:21;0.77;;;0.75;;
29686;SDS011;16599;47.078;15.536;2023-04-16T12:11:49;2.95;;;1.80;;
29686;SDS011;16599;47.078;15.536;2023-04-16T12:14:16;1.35;;;0.98;;
29686;SDS011;16599;47.078;15.536;2023-04-16T12:16:42;1.88;;;0.80;;
29686;SDS011;16599;47.078;15.536;2023-04-16T12:19:10;0.57;;;0.57;;
29686;SDS011;16599;47.078;15.536;2023-04-16T12:21:38;0.70;;;0.70;;
29686;SDS011;16599;47.078;15.536;2023-04-16T12:24:07;0.75;;;0.70;;
29686;SDS011;16599;47.078;15.536;2023-04-16T12:26:36;0.75;;;0.75;;
29686;SDS011;16599;47.078;15.536;2023-04-16T12:31:44;0.60;;;0.60;;
29686;SDS011;16599;47.078;15.536;2023-04-16T12:34:11;1.00;;;0.90;;
29686;SDS011;16599;47.078;15.536;2023-04-16T12:36:41;0.95;;;0.95;;
29686;SDS011;16599;47.078;15.536;2023-04-16T12:39:09;0.88;;;0.80;;
29686;SDS011;16599;47.078;15.536;2023-04-16T12:41:37;1.15;;;1.08;;
29686;SDS011;16599;47.078;15.536;2023-04-16T12:44:06;1.70;;;1.15;;
29686;SDS011;16599;47.078;15.536;2023-04-16T12:46:40;1.10;;;1.00;;
29686;SDS011;16599;47.078;15.536;2023-04-16T12:49:08;1.33;;;0.90;;
29686;SDS011;16599;47.078;15.536;2023-04-16T12:51:37;1.17;;;0.90;;
29686;SDS011;16599;47.078;15.536;2023-04-16T12:54:05;0.80;;;0.80;;
29686;SDS011;16599;47.078;15.536;2023-04-16T12:56:35;3.63;;;0.90;;
29686;SDS011;16599;47.078;15.536;2023-04-16T12:59:02;0.77;;;0.77;;
29686;SDS011;16599;47.078;15.536;2023-04-16T13:01:29;0.70;;;0.70;;
29686;SDS011;16599;47.078;15.536;2023-04-16T13:03:56;0.68;;;0.60;;
29686;SDS011;16599;47.078;15.536;2023-04-16T13:06:23;0.88;;;0.80;;
29686;SDS011;16599;47.078;15.536;2023-04-16T13:08:51;0.50;;;0.50;;
29686;SDS011;16599;47.078;15.536;2023-04-16T13:11:18;0.80;;;0.80;;
29686;SDS011;16599;47.078;15.536;2023-04-16T13:13:45;0.90;;;0.90;;
29686;SDS011;16599;47.078;15.536;2023-04-16T13:19:17;1.77;;;1.00;;
29686;SDS011;16599;47.078;15.536;2023-04-16T13:21:44;1.25;;;0.85;;
29686;SDS011;16599;47.078;15.536;2023-04-16T13:24:11;4.07;;;1.10;;
29686;SDS011;16599;47.078;15.536;2023-04-16T13:26:38;0.73;;;0.73;;
29686;SDS011;16599;47.078;15.536;2023-04-16T13:29:04;1.00;;;0.90;;
29686;SDS011;16599;47.078;15.536;2023-04-16T13:31:31;0.95;;;0.85;;
29686;SDS011;16599;47.078;15.536;2023-04-16T13:33:58;1.15;;;0.90;;
29686;SDS011;16599;47.078;15.536;2023-04-16T13:36:25;1.60;;;1.50;;
29686;SDS011;16599;47.078;15.536;2023-04-16T13:38:53;1.10;;;1.00;;
29686;SDS011;16599;47.078;15.536;2023-04-16T13:41:19;1.10;;;1.00;;
29686;SDS011;16599;47.078;15.536;2023-04-16T13:43:46;1.38;;;1.27;;
29686;SDS011;16599;47.078;15.536;2023-04-16T13:46:13;1.73;;;1.20;;
29686;SDS011;16599;47.078;15.536;2023-04-16T13:48:40;1.02;;;1.02;;
29686;SDS011;16599;47.078;15.536;2023-04-16T13:51:07;1.00;;;1.00;;
29686;SDS011;16599;47.078;15.536;2023-04-16T13:53:34;4.63;;;2.70;;
29686;SDS011;16599;47.078;15.536;2023-04-16T13:56:01;1.90;;;1.08;;
29686;SDS011;16599;47.078;15.536;2023-04-16T13:58:28;1.40;;;1.30;;
29686;SDS011;16599;47.078;15.536;2023-04-16T14:00:55;1.17;;;1.00;;
29686;SDS011;16599;47.078;15.536;2023-04-16T14:03:23;1.80;;;1.38;;
29686;SDS011;16599;47.078;15.536;2023-04-16T14:05:52;1.30;;;1.20;;
29686;SDS011;16599;47.078;15.536;2023-04-16T14:08:19;2.00;;;1.02;;
29686;SDS011;16599;47.078;15.536;2023-04-16T14:10:47;2.40;;;1.00;;
29686;SDS011;16599;47.078;15.536;2023-04-16T14:13:14;0.68;;;0.68;;
29686;SDS011;16599;47.078;15.536;2023-04-16T14:15:41;1.33;;;0.95;;
29686;SDS011;16599;47.078;15.536;2023-04-16T14:18:08;1.40;;;0.70;;
29686;SDS011;16599;47.078;15.536;2023-04-16T14:20:35;2.53;;;1.17;;
29686;SDS011;16599;47.078;15.536;2023-04-16T14:23:05;1.58;;;0.82;;
29686;SDS011;16599;47.078;15.536;2023-04-16T14:25:32;1.20;;;1.10;;
29686;SDS011;16599;47.078;15.536;2023-04-16T14:27:59;0.70;;;0.70;;
29686;SDS011;16599;47.078;15.536;2023-04-16T14:30:26;1.02;;;1.00;;
29686;SDS011;16599;47.078;15.536;2023-04-16T14:32:53;1.00;;;0.90;;
29686;SDS011;16599;47.078;15.536;2023-04-16T14:35:20;1.98;;;1.05;;
29686;SDS011;16599;47.078;15.536;2023-04-16T14:37:48;1.10;;;1.00;;
29686;SDS011;16599;47.078;15.536;2023-04-16T14:40:15;1.30;;;1.20;;
29686;SDS011;16599;47.078;15.536;2023-04-16T14:42:42;1.42;;;1.23;;
29686;SDS011;16599;47.078;15.536;2023-04-16T14:45:09;1.85;;;1.00;;
29686;SDS011;16599;47.078;15.536;2023-04-16T14:47:36;1.20;;;1.10;;
29686;SDS011;16599;47.078;15.536;2023-04-16T14:50:08;1.65;;;1.30;;